Time;durP1;ratioP1;P1;durP2;ratioP2;P2;SDS_P1;SDS_P2;PMS_P1;PMS_P2;Temp;Humidity;BMP_temperature;BMP_pressure;BME280_temperature;BME280_humidity;BME280_pressure;Samples;Min_cycle;Max_cycle;Signal;HPM_P1;HPM_P2
2022/09/23 00:00:44;;;;;;;3.25;2.47;;;16.40;75.10;;;;;;6219607;23;20026;-87
2022/09/23 00:03:10;;;;;;;7.40;3.30;;;16.40;74.40;;;;;;6246271;23;20007;-86
2022/09/23 00:05:36;;;;;;;4.80;3.10;;;16.50;74.50;;;;;;6215437;23;20498;-88
2022/09/23 00:08:03;;;;;;;9.60;3.30;;;16.50;74.60;;;;;;6215697;23;19997;-88
2022/09/23 00:10:32;;;;;;;4.05;3.53;;;16.50;75.00;;;;;;6216096;23;20003;-87
2022/09/23 00:12:58;;;;;;;4.20;3.38;;;16.50;74.30;;;;;;6215286;23;20521;-88
2022/09/23 00:15:25;;;;;;;3.00;2.67;;;16.50;74.90;;;;;;6216069;23;20024;-88
2022/09/23 00:17:51;;;;;;;4.80;3.55;;;16.50;74.10;;;;;;6215411;23;20005;-88
2022/09/23 00:20:17;;;;;;;5.32;3.45;;;16.50;74.60;;;;;;6215212;23;20005;-83
2022/09/23 00:22:44;;;;;;;5.72;3.95;;;16.50;75.20;;;;;;6213769;23;20039;-85
2022/09/23 00:25:10;;;;;;;5.47;3.35;;;16.50;75.00;;;;;;6214689;23;20007;-86
2022/09/23 00:27:37;;;;;;;5.90;3.65;;;16.50;74.90;;;;;;6214164;23;20011;-84
2022/09/23 00:30:06;;;;;;;4.25;2.80;;;16.50;75.20;;;;;;6214818;23;20000;-84
2022/09/23 00:32:33;;;;;;;4.45;3.00;;;16.50;74.80;;;;;;6214446;23;20008;-84
2022/09/23 00:34:59;;;;;;;8.50;3.95;;;16.50;74.80;;;;;;6188558;23;20008;-82
2022/09/23 00:37:26;;;;;;;3.65;2.42;;;16.50;74.70;;;;;;6215348;23;20459;-86
2022/09/23 00:39:52;;;;;;;5.47;3.28;;;16.50;74.70;;;;;;6215285;23;20000;-85
2022/09/23 00:42:20;;;;;;;4.47;2.78;;;16.50;74.90;;;;;;6214660;23;20074;-86
2022/09/23 00:44:48;;;;;;;6.18;3.17;;;16.50;74.70;;;;;;6188805;23;20024;-84
2022/09/23 00:47:21;;;;;;;5.45;3.30;;;16.40;74.90;;;;;;6215853;23;19996;-85
2022/09/23 00:49:53;;;;;;;4.00;3.08;;;16.40;75.30;;;;;;6214972;23;20020;-85
2022/09/23 00:52:22;;;;;;;4.13;3.17;;;16.40;75.20;;;;;;6214836;23;20000;-85
2022/09/23 00:54:50;;;;;;;3.88;2.90;;;16.40;74.80;;;;;;6215613;23;20005;-86
2022/09/23 00:57:18;;;;;;;5.53;3.20;;;16.30;74.60;;;;;;6215336;23;20001;-86
2022/09/23 00:59:45;;;;;;;6.10;3.53;;;16.40;74.90;;;;;;6216073;23;20001;-85
2022/09/23 01:02:13;;;;;;;4.90;3.17;;;16.30;74.70;;;;;;6213709;23;20276;-84
2022/09/23 01:04:39;;;;;;;5.00;3.38;;;16.30;74.60;;;;;;6233882;23;20028;-84
2022/09/23 01:07:05;;;;;;;4.15;3.08;;;16.40;74.70;;;;;;6244176;23;19996;-84
2022/09/23 01:09:31;;;;;;;5.72;3.03;;;16.30;74.40;;;;;;6246010;23;20007;-84
2022/09/23 01:12:18;;;;;;;4.13;3.10;;;16.40;74.50;;;;;;6244373;23;20082;-84
2022/09/23 01:15:17;;;;;;;5.43;3.25;;;16.30;74.70;;;;;;6245574;23;20024;-81
2022/09/23 01:18:07;;;;;;;4.28;2.92;;;16.30;74.60;;;;;;6245252;23;20027;-82
2022/09/23 01:20:58;;;;;;;4.60;2.90;;;16.30;74.20;;;;;;6218468;23;20690;-82
2022/09/23 01:23:45;;;;;;;4.05;3.00;;;16.30;74.70;;;;;;6244652;23;19996;-82
2022/09/23 01:26:38;;;;;;;5.25;3.10;;;16.20;74.80;;;;;;6244604;23;20083;-82
2022/09/23 01:29:16;;;;;;;5.10;2.70;;;16.20;74.50;;;;;;6245611;23;20039;-84
2022/09/23 01:32:20;;;;;;;3.95;2.40;;;16.20;74.90;;;;;;6245131;23;19997;-86
2022/09/23 01:35:06;;;;;;;6.38;3.80;;;16.30;74.40;;;;;;6178982;23;20008;-86
2022/09/23 01:37:44;;;;;;;4.65;3.03;;;16.20;74.70;;;;;;6245055;23;20330;-87
2022/09/23 01:40:20;;;;;;;6.93;3.67;;;16.10;74.60;;;;;;6246756;23;20472;-86
2022/09/23 01:42:57;;;;;;;4.65;2.83;;;16.20;74.80;;;;;;6246144;23;20036;-86
2022/09/23 01:45:42;;;;;;;4.93;3.25;;;16.20;74.60;;;;;;6245908;23;20008;-88
2022/09/23 01:48:22;;;;;;;3.83;2.85;;;16.20;74.60;;;;;;6246368;23;20012;-89
2022/09/23 01:51:20;;;;;;;4.38;2.85;;;16.00;75.00;;;;;;6246252;23;20011;-84
2022/09/23 01:54:08;;;;;;;7.90;3.15;;;16.00;75.00;;;;;;6228878;23;20000;-84
2022/09/23 01:56:55;;;;;;;5.32;2.92;;;16.00;75.20;;;;;;6244320;23;20034;-83
2022/09/23 01:59:29;;;;;;;3.15;2.55;;;15.80;75.60;;;;;;6182910;23;20446;-83
2022/09/23 02:02:01;;;;;;;3.88;2.85;;;15.80;75.80;;;;;;6246394;23;20008;-89
2022/09/23 02:05:00;;;;;;;4.40;3.30;;;15.70;76.10;;;;;;6248386;23;20091;-87
2022/09/23 02:07:38;;;;;;;4.80;3.20;;;15.60;76.50;;;;;;6244170;23;20004;-88
2022/09/23 02:10:21;;;;;;;5.18;2.75;;;15.70;76.50;;;;;;6247464;23;20000;-88
2022/09/23 02:12:51;;;;;;;7.72;3.20;;;15.80;76.10;;;;;;6248665;23;20403;-92
2022/09/23 02:15:32;;;;;;;5.37;3.00;;;15.60;76.40;;;;;;6249185;23;20000;-90
2022/09/23 02:18:08;;;;;;;4.32;2.25;;;15.70;76.00;;;;;;6248431;23;20279;-90
2022/09/23 02:20:38;;;;;;;2.95;2.05;;;15.90;75.70;;;;;;6247092;23;20004;-85
2022/09/23 02:23:09;;;;;;;3.70;2.72;;;16.00;75.40;;;;;;6247088;23;20026;-83
2022/09/23 02:26:08;;;;;;;4.75;2.63;;;16.10;75.00;;;;;;6243037;23;20012;-83
2022/09/23 02:28:54;;;;;;;3.90;2.78;;;16.30;74.70;;;;;;6226888;23;20011;-84
2022/09/23 02:31:39;;;;;;;3.60;2.42;;;16.30;74.40;;;;;;6244674;23;20046;-87
2022/09/23 02:34:29;;;;;;;3.47;1.92;;;16.40;73.80;;;;;;6247778;23;20041;-86
2022/09/23 02:37:04;;;;;;;3.20;2.42;;;16.50;73.40;;;;;;6219187;23;20341;-88
2022/09/23 02:40:01;;;;;;;3.30;2.30;;;16.50;72.90;;;;;;6247663;23;20000;-88
2022/09/23 02:42:42;;;;;;;5.32;2.17;;;16.50;72.70;;;;;;6196034;23;20032;-85
2022/09/23 02:45:08;;;;;;;3.47;2.15;;;16.50;72.20;;;;;;6246924;23;20004;-84
2022/09/23 02:47:38;;;;;;;3.85;2.03;;;16.50;71.70;;;;;;6246639;23;20007;-85
2022/09/23 02:50:04;;;;;;;2.80;1.77;;;16.60;71.50;;;;;;6246792;23;20013;-85
2022/09/23 02:52:31;;;;;;;2.33;1.85;;;16.50;71.30;;;;;;6245432;23;20000;-86
2022/09/23 02:54:59;;;;;;;3.50;1.70;;;16.60;71.40;;;;;;6247067;23;20397;-86
2022/09/23 02:57:25;;;;;;;3.28;1.98;;;16.60;71.50;;;;;;6246530;23;20004;-86
2022/09/23 02:59:51;;;;;;;3.95;2.20;;;16.60;71.30;;;;;;6246666;23;20318;-87
2022/09/23 03:02:23;;;;;;;3.45;1.70;;;16.70;71.00;;;;;;6246372;23;20010;-85
2022/09/23 03:05:00;;;;;;;2.90;1.75;;;16.70;70.60;;;;;;6246829;23;20015;-86
2022/09/23 03:08:04;;;;;;;4.53;2.00;;;16.70;70.30;;;;;;6245464;23;20000;-86
2022/09/23 03:11:16;;;;;;;2.33;2.00;;;16.70;70.00;;;;;;6218995;23;20361;-85
2022/09/23 03:14:16;;;;;;;8.65;1.88;;;16.70;69.70;;;;;;6123996;23;20001;-85
2022/09/23 03:17:11;;;;;;;2.28;1.83;;;16.70;69.40;;;;;;6124114;23;20006;-86
2022/09/23 03:19:42;;;;;;;2.97;1.92;;;16.70;69.00;;;;;;6207462;23;20004;-84
2022/09/23 03:22:30;;;;;;;2.53;2.00;;;16.70;68.70;;;;;;6247103;23;20014;-85
2022/09/23 03:25:01;;;;;;;2.90;1.73;;;16.70;68.40;;;;;;6246005;23;20437;-84
2022/09/23 03:27:30;;;;;;;4.97;2.20;;;16.80;68.30;;;;;;6247394;23;20053;-85
2022/09/23 03:29:56;;;;;;;3.10;1.85;;;16.70;68.00;;;;;;6247030;23;20001;-84
2022/09/23 03:32:26;;;;;;;4.25;2.20;;;16.70;68.40;;;;;;6219792;23;20299;-84
2022/09/23 03:34:53;;;;;;;;;;;16.70;67.70;;;;;;6247795;23;20073;-86
2022/09/23 03:37:34;;;;;;;5.25;2.38;;;16.60;67.40;;;;;;6247085;23;19926;-85
2022/09/23 03:40:13;;;;;;;5.35;2.50;;;16.30;67.40;;;;;;6244837;23;20486;-84
2022/09/23 03:42:40;;;;;;;4.55;2.88;;;16.00;68.70;;;;;;6246980;23;20023;-85
2022/09/23 03:45:11;;;;;;;4.32;2.40;;;15.80;69.60;;;;;;6246829;23;20050;-88
2022/09/23 03:47:38;;;;;;;4.65;2.25;;;15.70;69.90;;;;;;6248167;23;20391;-90
2022/09/23 03:50:05;;;;;;;2.13;1.33;;;15.40;70.80;;;;;;6247602;23;20000;-90
2022/09/23 03:52:30;;;;;;;8.48;2.50;;;15.50;70.60;;;;;;6247718;23;19997;-89
2022/09/23 03:54:57;;;;;;;2.60;2.00;;;15.50;71.40;;;;;;6220048;23;20323;-87
2022/09/23 03:57:23;;;;;;;2.67;1.52;;;15.50;71.30;;;;;;6246527;23;20051;-86
2022/09/23 03:59:49;;;;;;;5.00;2.50;;;15.60;70.90;;;;;;6244792;23;20001;-85
2022/09/23 04:02:16;;;;;;;2.53;1.67;;;15.50;71.50;;;;;;6246013;23;20000;-85
2022/09/23 04:04:42;;;;;;;3.42;1.65;;;15.60;71.40;;;;;;6244005;23;20019;-87
2022/09/23 04:07:09;;;;;;;2.92;1.48;;;15.50;72.00;;;;;;6245642;23;20030;-86
2022/09/23 04:09:36;;;;;;;2.78;1.80;;;15.60;71.40;;;;;;6245796;23;20403;-85
2022/09/23 04:12:02;;;;;;;2.05;1.75;;;15.70;71.40;;;;;;6245932;23;20430;-87
2022/09/23 04:14:28;;;;;;;2.88;1.48;;;15.80;71.60;;;;;;6246869;23;20000;-86
2022/09/23 04:16:54;;;;;;;1.80;1.50;;;15.80;71.60;;;;;;6246783;23;20058;-86
2022/09/23 04:19:19;;;;;;;3.15;1.70;;;15.90;71.50;;;;;;6245382;23;20010;-85
2022/09/23 04:21:45;;;;;;;4.07;1.80;;;15.90;71.20;;;;;;6245709;23;20407;-84
2022/09/23 04:24:11;;;;;;;2.78;1.92;;;15.90;71.10;;;;;;6245318;23;20004;-80
2022/09/23 04:26:38;;;;;;;2.63;1.38;;;15.90;71.00;;;;;;6246254;23;20000;-86
2022/09/23 04:29:04;;;;;;;3.85;1.70;;;15.90;71.00;;;;;;6246418;23;20000;-84
2022/09/23 04:31:31;;;;;;;3.85;1.67;;;15.90;71.00;;;;;;6244555;23;20014;-82
2022/09/23 04:33:57;;;;;;;2.63;1.70;;;15.90;71.00;;;;;;6244740;23;19996;-82
2022/09/23 04:36:23;;;;;;;2.90;1.70;;;16.00;71.60;;;;;;6242545;23;20425;-81
2022/09/23 04:38:49;;;;;;;6.70;1.70;;;16.00;71.00;;;;;;6244729;23;20004;-81
2022/09/23 04:41:16;;;;;;;5.60;1.83;;;16.00;71.10;;;;;;6244603;23;20004;-82
2022/09/23 04:43:43;;;;;;;3.47;1.30;;;15.90;70.80;;;;;;6241751;23;20003;-87
2022/09/23 04:46:12;;;;;;;2.20;1.60;;;15.90;70.80;;;;;;6218634;23;20757;-84
2022/09/23 04:48:40;;;;;;;4.32;1.75;;;16.00;70.80;;;;;;6245225;23;20350;-85
2022/09/23 04:51:13;;;;;;;2.45;1.40;;;16.00;70.80;;;;;;6244599;23;20054;-84
2022/09/23 04:53:41;;;;;;;3.63;1.48;;;16.00;70.90;;;;;;6244516;23;20008;-83
2022/09/23 04:56:10;;;;;;;2.60;1.60;;;16.10;71.30;;;;;;6243400;23;20011;-88
2022/09/23 04:58:37;;;;;;;4.80;2.20;;;16.20;70.90;;;;;;6219208;23;20066;-88
2022/09/23 05:01:15;;;;;;;3.00;1.80;;;16.20;70.80;;;;;;6246402;23;20015;-88
2022/09/23 05:03:42;;;;;;;2.53;1.63;;;16.20;70.70;;;;;;6245145;23;20482;-84
2022/09/23 05:06:10;;;;;;;3.70;1.70;;;16.30;70.40;;;;;;6245510;23;20486;-85
2022/09/23 05:08:36;;;;;;;2.03;1.35;;;16.30;70.30;;;;;;6218828;23;20077;-83
2022/09/23 05:11:03;;;;;;;2.10;1.55;;;16.30;70.10;;;;;;6245997;23;20000;-81
2022/09/23 05:13:30;;;;;;;2.45;1.42;;;16.30;70.20;;;;;;6245883;23;20473;-83
2022/09/23 05:16:01;;;;;;;2.50;1.45;;;16.30;70.10;;;;;;6241220;23;20004;-87
2022/09/23 05:18:27;;;;;;;;;;;16.40;70.00;;;;;;6245481;23;20024;-87
2022/09/23 05:20:56;;;;;;;1.67;1.30;;;16.40;70.20;;;;;;6244408;23;19938;-86
2022/09/23 05:23:23;;;;;;;2.03;1.65;;;16.40;70.00;;;;;;6245877;23;20061;-87
2022/09/23 05:25:54;;;;;;;3.47;1.48;;;16.40;70.00;;;;;;6244620;23;20004;-84
2022/09/23 05:28:20;;;;;;;3.13;1.60;;;16.40;69.90;;;;;;6243984;23;19996;-84
2022/09/23 05:30:45;;;;;;;2.88;1.70;;;16.50;69.70;;;;;;6245283;23;20007;-84
2022/09/23 05:33:12;;;;;;;2.60;1.50;;;16.50;69.00;;;;;;6245614;23;20031;-84
2022/09/23 05:35:37;;;;;;;2.60;1.65;;;16.40;69.30;;;;;;6245159;23;20074;-82
2022/09/23 05:38:03;;;;;;;3.70;1.70;;;16.40;69.50;;;;;;6245082;23;20468;-82
2022/09/23 05:40:29;;;;;;;3.28;1.55;;;16.50;69.30;;;;;;6245413;23;20517;-83
2022/09/23 05:42:55;;;;;;;2.97;1.73;;;16.50;69.20;;;;;;6245298;23;20330;-83
2022/09/23 05:45:20;;;;;;;2.13;1.60;;;16.50;69.90;;;;;;6245279;23;20000;-83
2022/09/23 05:47:46;;;;;;;3.35;1.38;;;16.50;69.30;;;;;;6245439;23;20023;-86
2022/09/23 05:50:12;;;;;;;3.55;1.60;;;16.60;69.30;;;;;;6245364;23;20000;-88
2022/09/23 05:52:38;;;;;;;2.25;1.60;;;16.60;69.40;;;;;;6245224;23;20007;-86
2022/09/23 05:55:04;;;;;;;4.28;1.70;;;16.60;68.40;;;;;;6218630;23;20053;-87
2022/09/23 05:57:29;;;;;;;1.85;1.23;;;16.60;67.90;;;;;;6218559;23;20000;-83
2022/09/23 05:59:55;;;;;;;2.63;1.50;;;16.60;68.10;;;;;;6244710;23;20003;-86
2022/09/23 06:02:21;;;;;;;1.90;1.60;;;16.60;67.90;;;;;;6218253;23;20019;-82
2022/09/23 06:04:46;;;;;;;2.72;1.00;;;16.60;67.90;;;;;;6244912;23;20008;-82
2022/09/23 06:07:12;;;;;;;2.42;1.45;;;16.60;67.10;;;;;;6245869;23;20002;-82
2022/09/23 06:09:44;;;;;;;4.07;1.63;;;16.60;67.60;;;;;;6246209;23;20510;-82
2022/09/23 06:12:10;;;;;;;2.97;1.20;;;16.60;67.30;;;;;;6248661;23;20376;-84
2022/09/23 06:14:35;;;;;;;2.50;1.33;;;16.60;67.10;;;;;;6245316;23;19996;-84
2022/09/23 06:17:01;;;;;;;1.95;1.50;;;16.50;67.20;;;;;;6244682;23;20004;-85
2022/09/23 06:19:27;;;;;;;1.63;1.33;;;16.50;67.20;;;;;;6244265;23;20008;-84
2022/09/23 06:21:53;;;;;;;2.17;1.35;;;16.60;67.40;;;;;;6245167;23;20007;-85
2022/09/23 06:24:19;;;;;;;2.50;1.50;;;16.60;67.50;;;;;;6218907;23;20046;-86
2022/09/23 06:26:44;;;;;;;2.20;1.60;;;16.60;67.60;;;;;;6245857;23;20004;-86
2022/09/23 06:29:16;;;;;;;2.72;1.50;;;16.50;67.60;;;;;;6246554;23;20398;-85
2022/09/23 06:31:42;;;;;;;2.30;1.10;;;16.50;67.60;;;;;;6212872;23;20008;-87
2022/09/23 06:34:12;;;;;;;2.45;1.60;;;16.50;67.50;;;;;;6244246;23;20004;-87
2022/09/23 06:36:39;;;;;;;1.92;1.20;;;16.50;67.50;;;;;;6243646;23;20027;-88
2022/09/23 06:39:05;;;;;;;5.95;1.70;;;16.50;67.40;;;;;;6216910;23;20062;-82
2022/09/23 06:41:31;;;;;;;3.13;1.33;;;16.50;67.30;;;;;;6243685;23;20004;-82
2022/09/23 06:43:57;;;;;;;1.98;1.42;;;16.60;67.50;;;;;;6244607;23;20007;-86
2022/09/23 06:46:22;;;;;;;1.85;1.27;;;16.60;67.60;;;;;;6216682;23;20339;-83
2022/09/23 06:48:49;;;;;;;3.63;1.30;;;16.70;67.90;;;;;;6243906;23;20000;-83
2022/09/23 06:51:18;;;;;;;1.95;1.48;;;16.70;68.00;;;;;;6244064;23;20011;-84
2022/09/23 06:53:48;;;;;;;2.42;1.50;;;16.70;68.00;;;;;;6244016;23;20075;-84
2022/09/23 06:56:16;;;;;;;4.00;1.58;;;16.80;67.90;;;;;;6244197;23;20004;-87
2022/09/23 06:58:41;;;;;;;2.28;1.75;;;16.70;67.20;;;;;;6243585;23;20008;-86
2022/09/23 07:01:11;;;;;;;1.55;1.25;;;16.70;67.30;;;;;;6246092;23;20008;-88
2022/09/23 07:03:37;;;;;;;2.15;1.55;;;16.70;67.70;;;;;;6219647;23;20091;-86
2022/09/23 07:06:04;;;;;;;2.42;1.20;;;16.70;67.60;;;;;;6245287;23;20047;-87
2022/09/23 07:08:32;;;;;;;357.75;262.08;;;16.70;67.40;;;;;;6217811;23;20000;-85
2022/09/23 07:11:00;;;;;;;64.13;49.10;;;16.60;67.50;;;;;;6242262;23;20001;-88
2022/09/23 07:13:29;;;;;;;4.80;3.08;;;16.70;67.70;;;;;;6244791;23;19996;-85
2022/09/23 07:15:57;;;;;;;5.85;2.50;;;16.50;67.40;;;;;;6246907;23;20004;-84
2022/09/23 07:18:24;;;;;;;3.33;1.20;;;16.40;67.80;;;;;;6246604;23;20007;-83
2022/09/23 07:20:51;;;;;;;1.17;0.88;;;16.50;68.00;;;;;;6246674;23;20000;-83
2022/09/23 07:23:17;;;;;;;4.55;2.38;;;16.60;68.40;;;;;;6246706;23;20026;-83
2022/09/23 07:25:45;;;;;;;4.07;1.80;;;16.70;67.70;;;;;;6246494;23;20008;-83
2022/09/23 07:28:11;;;;;;;2.22;1.30;;;16.40;68.40;;;;;;6238814;23;20000;-83
2022/09/23 07:30:43;;;;;;;2.60;1.48;;;16.50;68.50;;;;;;6245177;23;20000;-83
2022/09/23 07:33:12;;;;;;;1.48;1.20;;;16.60;68.50;;;;;;6219536;23;20070;-83
2022/09/23 07:35:40;;;;;;;2.70;1.33;;;16.60;68.50;;;;;;6219193;23;20039;-82
2022/09/23 07:38:07;;;;;;;2.55;1.20;;;16.70;68.40;;;;;;6245491;23;20006;-83
2022/09/23 07:40:33;;;;;;;6.32;1.30;;;16.80;68.50;;;;;;6246478;23;20011;-82
2022/09/23 07:42:59;;;;;;;1.10;1.00;;;17.00;68.70;;;;;;6247370;23;20011;-82
2022/09/23 07:45:26;;;;;;;1.30;1.00;;;17.20;68.80;;;;;;6247157;23;20075;-83
2022/09/23 07:47:54;;;;;;;3.13;1.10;;;17.30;68.90;;;;;;6246810;23;20067;-83
2022/09/23 07:50:21;;;;;;;1.80;1.27;;;17.50;68.70;;;;;;6246992;23;20027;-83
2022/09/23 07:52:47;;;;;;;1.30;1.02;;;17.60;68.50;;;;;;6246660;23;19996;-83
2022/09/23 07:55:13;;;;;;;1.67;1.20;;;17.70;68.70;;;;;;6246166;23;20008;-83
2022/09/23 07:57:39;;;;;;;2.15;1.30;;;17.90;68.50;;;;;;6246389;23;20071;-82
2022/09/23 08:00:06;;;;;;;4.53;1.30;;;17.90;68.10;;;;;;6245322;23;20007;-82
2022/09/23 08:02:31;;;;;;;2.40;1.23;;;18.00;67.70;;;;;;6246745;23;20004;-83
2022/09/23 08:04:57;;;;;;;2.65;1.35;;;18.10;67.70;;;;;;6246590;23;20020;-83
2022/09/23 08:07:22;;;;;;;1.63;1.45;;;18.20;67.20;;;;;;6246654;23;19996;-84
2022/09/23 08:09:48;;;;;;;2.13;1.17;;;18.30;66.50;;;;;;6246171;23;20004;-82
2022/09/23 08:12:17;;;;;;;2.10;1.00;;;18.30;66.60;;;;;;6246908;23;20067;-82
2022/09/23 08:14:43;;;;;;;1.85;1.20;;;18.40;66.80;;;;;;6219704;23;20307;-83
2022/09/23 08:17:11;;;;;;;2.05;1.20;;;18.50;66.70;;;;;;6246071;23;20000;-82
2022/09/23 08:19:37;;;;;;;3.30;1.25;;;18.60;66.70;;;;;;6245623;23;20334;-82
2022/09/23 08:22:03;;;;;;;2.15;1.00;;;18.70;66.60;;;;;;6246458;23;20000;-82
2022/09/23 08:24:31;;;;;;;2.10;1.30;;;18.80;66.10;;;;;;6245882;23;20469;-81
2022/09/23 08:26:56;;;;;;;1.80;1.30;;;18.90;65.60;;;;;;6245836;23;20486;-81
2022/09/23 08:29:24;;;;;;;2.47;1.30;;;18.80;65.30;;;;;;6245422;23;20030;-82
2022/09/23 08:31:50;;;;;;;1.15;0.95;;;18.90;65.70;;;;;;6219172;23;20000;-82
2022/09/23 08:34:18;;;;;;;1.85;1.00;;;19.00;65.70;;;;;;6246427;23;20003;-82
2022/09/23 08:36:44;;;;;;;1.63;1.17;;;19.10;65.10;;;;;;6246498;23;20008;-82
2022/09/23 08:39:18;;;;;;;1.50;1.13;;;19.20;65.10;;;;;;6246258;23;20026;-83
2022/09/23 08:41:53;;;;;;;2.90;1.20;;;19.40;65.20;;;;;;6246560;23;20031;-82
2022/09/23 08:44:36;;;;;;;2.95;1.13;;;19.50;65.20;;;;;;6246194;23;20004;-83
2022/09/23 08:47:14;;;;;;;1.58;1.15;;;19.70;65.50;;;;;;6246070;23;20005;-83
2022/09/23 08:49:48;;;;;;;5.00;1.10;;;19.80;64.20;;;;;;6218666;23;20083;-83
2022/09/23 08:52:27;;;;;;;2.75;1.35;;;19.90;64.30;;;;;;6246447;23;20002;-83
2022/09/23 08:54:52;;;;;;;3.63;1.25;;;20.00;64.30;;;;;;6246181;23;20000;-83
2022/09/23 08:57:51;;;;;;;1.83;1.13;;;20.10;62.40;;;;;;6246647;23;20055;-83
2022/09/23 09:00:25;;;;;;;1.70;1.10;;;20.10;62.00;;;;;;6245864;23;20364;-82
2022/09/23 09:02:52;;;;;;;2.85;1.20;;;20.10;62.20;;;;;;6245790;23;19996;-83
2022/09/23 09:05:25;;;;;;;1.30;1.20;;;20.10;62.10;;;;;;6244825;23;20015;-83
2022/09/23 09:07:53;;;;;;;2.67;1.30;;;20.20;61.40;;;;;;6245377;23;20607;-81
2022/09/23 09:10:24;;;;;;;1.83;1.02;;;20.20;60.20;;;;;;6218326;23;20008;-84
2022/09/23 09:12:59;;;;;;;1.92;1.45;;;20.30;61.90;;;;;;6245992;23;20026;-83
2022/09/23 09:15:26;;;;;;;1.25;0.95;;;20.40;60.00;;;;;;6245888;23;20061;-84
2022/09/23 09:17:58;;;;;;;2.58;1.17;;;20.40;60.00;;;;;;6218488;23;20008;-82
2022/09/23 09:20:56;;;;;;;1.13;1.00;;;20.50;60.90;;;;;;6244859;23;20499;-82
2022/09/23 09:23:53;;;;;;;3.13;1.00;;;20.60;59.30;;;;;;6245549;23;20007;-82
2022/09/23 09:26:25;;;;;;;4.82;0.90;;;20.70;59.70;;;;;;6245173;23;20000;-82
2022/09/23 09:29:00;;;;;;;2.20;1.20;;;20.80;60.50;;;;;;6245960;23;20070;-87
2022/09/23 09:31:46;;;;;;;1.20;0.70;;;21.00;60.20;;;;;;6245900;23;20067;-87
2022/09/23 09:34:36;;;;;;;0.93;0.80;;;21.30;60.60;;;;;;6246935;23;20000;-88
2022/09/23 09:37:22;;;;;;;1.70;1.30;;;21.50;60.40;;;;;;6246718;23;20011;-87
2022/09/23 09:39:48;;;;;;;3.30;1.42;;;21.80;60.00;;;;;;6247163;23;20431;-86
2022/09/23 09:42:27;;;;;;;3.58;1.20;;;22.00;59.30;;;;;;6219876;23;20047;-85
2022/09/23 09:45:00;;;;;;;1.77;1.40;;;22.20;58.70;;;;;;6245027;23;20007;-82
2022/09/23 09:47:45;;;;;;;9.13;1.70;;;22.40;58.60;;;;;;6245324;23;20320;-82
2022/09/23 09:50:20;;;;;;;4.38;1.83;;;22.60;58.20;;;;;;6218226;23;20015;-82
2022/09/23 09:52:47;;;;;;;2.63;1.83;;;22.70;58.10;;;;;;6217386;23;20035;-86
2022/09/23 09:55:13;;;;;;;4.63;1.63;;;22.90;58.40;;;;;;6245942;23;20023;-86
2022/09/23 09:57:48;;;;;;;5.05;1.85;;;23.00;58.40;;;;;;6245979;23;20007;-86
2022/09/23 10:00:25;;;;;;;3.10;1.70;;;23.20;58.60;;;;;;6246087;23;20000;-87
2022/09/23 10:02:55;;;;;;;5.43;2.10;;;23.30;58.20;;;;;;6245356;23;20010;-88
2022/09/23 10:05:30;;;;;;;7.00;2.20;;;23.50;58.10;;;;;;6243709;23;20442;-87
2022/09/23 10:08:26;;;;;;;4.50;2.38;;;23.60;57.40;;;;;;6246052;23;20042;-87
2022/09/23 10:10:58;;;;;;;3.95;2.22;;;23.70;56.90;;;;;;6217928;23;20083;-86
2022/09/23 10:13:26;;;;;;;3.65;2.10;;;23.80;56.10;;;;;;6245874;23;20082;-87
2022/09/23 10:15:53;;;;;;;3.53;1.88;;;23.90;55.80;;;;;;6246685;23;20083;-87
2022/09/23 10:18:30;;;;;;;3.78;2.13;;;24.10;55.30;;;;;;6245671;23;20008;-85
2022/09/23 10:21:14;;;;;;;2.08;1.85;;;24.20;54.80;;;;;;6245428;23;20330;-85
2022/09/23 10:23:44;;;;;;;3.88;1.48;;;24.30;54.00;;;;;;6247864;23;20057;-86
2022/09/23 10:26:11;;;;;;;2.70;1.25;;;24.40;54.20;;;;;;6248312;23;20004;-87
2022/09/23 10:28:40;;;;;;;3.15;1.30;;;24.60;54.20;;;;;;6248211;23;19996;-87
2022/09/23 10:31:14;;;;;;;3.40;1.42;;;24.70;53.50;;;;;;6247944;23;20340;-87
2022/09/23 10:33:50;;;;;;;3.05;1.80;;;24.80;52.90;;;;;;6248168;23;20050;-87
2022/09/23 10:36:17;;;;;;;6.10;1.83;;;24.90;52.70;;;;;;6248235;23;20000;-87
2022/09/23 10:38:43;;;;;;;2.15;1.52;;;25.00;52.80;;;;;;6248572;23;20053;-86
2022/09/23 10:47:55;;;;;;;4.65;1.63;;;25.20;52.40;;;;;;6247279;23;20032;-87
2022/09/23 10:50:50;;;;;;;4.13;1.90;;;25.30;50.60;;;;;;6189210;23;20008;-87
2022/09/23 10:53:54;;;;;;;3.95;1.90;;;25.40;51.90;;;;;;6247208;23;19996;-89
2022/09/23 10:56:41;;;;;;;8.15;2.10;;;25.30;52.00;;;;;;6247062;23;20010;-88
2022/09/23 10:59:29;;;;;;;3.33;1.35;;;25.30;48.90;;;;;;6246415;23;20004;-87
2022/09/23 11:02:01;;;;;;;2.42;1.13;;;25.30;50.40;;;;;;6245995;23;20074;-87
2022/09/23 11:04:51;;;;;;;3.47;1.50;;;25.40;50.90;;;;;;6244615;23;20043;-87
2022/09/23 11:07:34;;;;;;;1.80;1.35;;;25.50;50.60;;;;;;6246843;23;20011;-88
2022/09/23 11:10:21;;;;;;;2.45;1.08;;;25.60;47.60;;;;;;6245435;23;20418;-87
2022/09/23 11:13:10;;;;;;;5.03;1.75;;;25.30;47.80;;;;;;6158720;23;20496;-88
2022/09/23 11:15:55;;;;;;;4.05;1.35;;;25.30;49.10;;;;;;6244996;23;20035;-86
2022/09/23 11:18:33;;;;;;;0.90;0.90;;;25.30;49.10;;;;;;6219742;23;20027;-86
2022/09/23 11:21:19;;;;;;;2.05;1.38;;;25.60;49.80;;;;;;6250351;23;20012;-87
2022/09/23 11:24:06;;;;;;;1.35;0.80;;;25.80;49.20;;;;;;6247772;23;20010;-86
2022/09/23 11:26:45;;;;;;;3.25;1.10;;;26.00;48.40;;;;;;6247269;23;20438;-85
2022/09/23 11:29:41;;;;;;;4.05;0.93;;;26.30;47.70;;;;;;6246783;23;20000;-86
2022/09/23 11:32:43;;;;;;;3.13;0.95;;;26.40;47.10;;;;;;6245807;23;20007;-86
2022/09/23 11:35:34;;;;;;;1.67;0.90;;;26.70;45.40;;;;;;6245220;23;20011;-86
2022/09/23 11:38:23;;;;;;;1.10;0.70;;;26.80;44.10;;;;;;6247500;23;20364;-87
2022/09/23 11:41:10;;;;;;;1.53;0.87;;;27.00;45.00;;;;;;6246203;23;20007;-85
2022/09/23 11:43:40;;;;;;;1.10;1.00;;;27.20;44.80;;;;;;6224484;23;20000;-87
2022/09/23 11:46:17;;;;;;;3.08;0.90;;;27.40;45.00;;;;;;6221197;23;20008;-87
2022/09/23 11:49:09;;;;;;;2.83;1.00;;;27.50;44.30;;;;;;6252934;23;19996;-87
2022/09/23 11:52:08;;;;;;;1.95;1.08;;;27.60;42.30;;;;;;6244421;23;20011;-87
2022/09/23 11:54:44;;;;;;;2.05;1.02;;;27.70;40.90;;;;;;6218770;23;20038;-87
2022/09/23 11:57:42;;;;;;;2.17;1.05;;;27.70;42.60;;;;;;6245360;23;20032;-87
2022/09/23 12:00:22;;;;;;;9.40;4.90;;;27.80;42.90;;;;;;6246473;23;20015;-87
2022/09/23 12:03:17;;;;;;;2.40;1.40;;;27.90;42.40;;;;;;6218555;23;20004;-87
2022/09/23 12:06:02;;;;;;;3.05;1.60;;;28.10;42.50;;;;;;6220361;23;20047;-84
2022/09/23 12:08:35;;;;;;;2.08;0.88;;;28.30;41.60;;;;;;6246563;23;20000;-84
2022/09/23 12:11:27;;;;;;;1.20;0.73;;;28.40;41.80;;;;;;6247657;23;20012;-86
2022/09/23 12:14:09;;;;;;;3.40;1.52;;;28.50;41.10;;;;;;6241967;23;20000;-86
2022/09/23 12:16:47;;;;;;;2.17;1.40;;;28.50;40.70;;;;;;6247309;23;20004;-79
2022/09/23 12:19:41;;;;;;;2.00;1.08;;;28.50;40.90;;;;;;6247855;23;20098;-87
2022/09/23 12:22:29;;;;;;;1.88;0.75;;;28.60;40.00;;;;;;6248914;23;20334;-88
2022/09/23 12:24:57;;;;;;;3.83;1.83;;;28.60;38.50;;;;;;6244953;23;20000;-81
2022/09/23 12:27:27;;;;;;;5.18;2.05;;;28.60;38.50;;;;;;6244856;23;20050;-81
2022/09/23 12:30:26;;;;;;;1.40;1.10;;;28.60;37.70;;;;;;6243312;23;20000;-82
2022/09/23 12:33:05;;;;;;;0.90;0.80;;;28.60;37.00;;;;;;6211599;23;20366;-81
2022/09/23 12:35:40;;;;;;;0.95;0.80;;;28.80;37.80;;;;;;6244499;23;20038;-83
2022/09/23 12:38:17;;;;;;;3.95;1.15;;;28.90;37.60;;;;;;6244331;23;20426;-81
2022/09/23 12:40:43;;;;;;;1.05;0.88;;;29.00;37.90;;;;;;6243753;23;20059;-82
2022/09/23 12:43:29;;;;;;;2.35;1.25;;;28.90;37.50;;;;;;6243414;23;20008;-83
2022/09/23 12:46:16;;;;;;;2.58;1.20;;;28.90;37.60;;;;;;6243322;23;20335;-82
2022/09/23 12:48:44;;;;;;;1.67;0.98;;;28.90;35.90;;;;;;6244547;23;20389;-81
2022/09/23 12:51:17;;;;;;;1.08;0.80;;;28.70;37.10;;;;;;6217148;23;20062;-84
2022/09/23 12:53:54;;;;;;;0.98;0.82;;;28.30;36.70;;;;;;6237767;23;20000;-83
2022/09/23 12:56:23;;;;;;;4.47;1.30;;;27.80;37.50;;;;;;6242954;23;20126;-84
2022/09/23 12:58:49;;;;;;;1.67;1.25;;;27.40;38.00;;;;;;6244763;23;20004;-86
2022/09/23 13:01:24;;;;;;;4.05;1.20;;;27.10;38.10;;;;;;6244632;23;20008;-85
2022/09/23 13:06:46;;;;;;;2.35;1.08;;;26.90;38.80;;;;;;6244323;23;20023;-82
2022/09/23 13:09:19;;;;;;;1.90;1.17;;;26.80;39.00;;;;;;6244419;23;20423;-81
2022/09/23 13:11:47;;;;;;;2.35;1.02;;;26.70;39.50;;;;;;6242156;23;20496;-82
2022/09/23 13:14:20;;;;;;;2.80;1.30;;;26.50;39.70;;;;;;6238780;23;20007;-83
2022/09/23 13:16:47;;;;;;;1.13;1.02;;;26.30;40.10;;;;;;6214239;23;20015;-83
2022/09/23 13:19:28;;;;;;;3.13;1.10;;;26.10;40.10;;;;;;6216674;23;20011;-83
2022/09/23 13:22:07;;;;;;;2.72;1.23;;;25.80;40.20;;;;;;6243157;23;20075;-84
2022/09/23 13:24:46;;;;;;;1.13;0.98;;;25.60;40.30;;;;;;6244389;23;20425;-87
2022/09/23 13:27:34;;;;;;;1.35;0.95;;;25.50;40.90;;;;;;6244481;23;20427;-87
2022/09/23 13:30:16;;;;;;;1.83;1.13;;;25.40;41.10;;;;;;6244953;23;20450;-86